New Hradec, North Dakota
Current Conditions -  °F | °C
As of 12:56 PM on Thursday 29 Jan 2015 (Local Time) from KDIK Reporting Station
Clear Clear  
Wind Chill: 29°   Ceiling: Unl
Heat Index: 35°   Visibility: 10mi
Dew Point: 20°   Wind: 7mph
Humidity: 54%   Direction: 310°NW
Pressure: 30.39"   Gusts: NA
Location:  46.9271°N, 102.754°W
Report Text: KDIK 291956Z AUTO 31006KT 10SM CLR 02/M07 A3039 RMK AO2 SLP317 T00171067
Loading
Personal Weather Stations






























Interactive Weather Map New forecast layout! Learn more

10-Day Weather Forecast

Advertisements
Track Severe Weather on mobile